createdAt,value
2022-09-11T00:01:32.561Z,100740.00
2022-09-11T00:04:00.223Z,100738.41
2022-09-11T00:06:30.093Z,100742.00
2022-09-11T00:09:01.099Z,100736.81
2022-09-11T00:11:40.410Z,100731.69
2022-09-11T00:14:14.843Z,100731.72
2022-09-11T00:16:45.217Z,100728.53
2022-09-11T00:19:19.321Z,100724.91
2022-09-11T00:21:47.697Z,100732.06
2022-09-11T00:24:15.166Z,100723.78
2022-09-11T00:26:45.163Z,100728.53
2022-09-11T00:29:12.577Z,100726.97
2022-09-11T00:31:40.220Z,100723.00
2022-09-11T00:34:09.770Z,100721.78
2022-09-11T00:36:41.317Z,100712.31
2022-09-11T00:39:10.763Z,100720.59
2022-09-11T00:41:41.277Z,100722.19
2022-09-11T00:44:29.702Z,100721.81
2022-09-11T00:47:00.272Z,100730.91
2022-09-11T00:49:41.014Z,100730.13
2022-09-11T00:52:23.139Z,100728.53
2022-09-11T00:54:54.338Z,100727.34
2022-09-11T00:57:24.702Z,100737.25
2022-09-11T00:59:58.499Z,100734.47
2022-09-11T01:02:30.078Z,100734.50
2022-09-11T01:04:58.138Z,100721.03
2022-09-11T01:07:27.095Z,100726.97
2022-09-11T01:09:55.933Z,100727.34
2022-09-11T01:12:33.022Z,100724.19
2022-09-11T01:15:03.897Z,100723.41
2022-09-11T01:17:44.146Z,100725.00
2022-09-11T01:20:45.071Z,100724.19
2022-09-11T01:23:18.518Z,100728.16
2022-09-11T01:25:48.925Z,100723.00
2022-09-11T01:28:23.319Z,100725.75
2022-09-11T01:30:58.168Z,100718.25
2022-09-11T01:33:38.114Z,100720.22
2022-09-11T01:36:10.263Z,100717.09
2022-09-11T01:38:46.806Z,100715.09
2022-09-11T01:41:16.860Z,100716.69
2022-09-11T01:44:24.685Z,100713.91
2022-09-11T01:46:53.583Z,100719.03
2022-09-11T01:49:35.462Z,100719.84
2022-09-11T01:52:10.837Z,100720.22
2022-09-11T01:54:45.181Z,100720.63
2022-09-11T01:57:26.143Z,100717.09
2022-09-11T02:00:00.982Z,100714.69
2022-09-11T02:02:34.837Z,100717.09
2022-09-11T02:05:08.858Z,100705.59
2022-09-11T02:07:50.031Z,100706.41
2022-09-11T02:10:35.217Z,100698.50
2022-09-11T02:13:13.914Z,100698.47
2022-09-11T02:15:47.847Z,100714.66
2022-09-11T02:18:29.398Z,100710.69
2022-09-11T02:20:57.241Z,100709.91
2022-09-11T02:23:24.726Z,100716.22
2022-09-11T02:25:53.898Z,100719.41
2022-09-11T02:28:23.769Z,100715.06
2022-09-11T02:30:51.349Z,100694.88
2022-09-11T02:33:30.627Z,100707.94
2022-09-11T02:36:08.611Z,100758.09
2022-09-11T02:38:57.287Z,100771.94
2022-09-11T02:41:35.719Z,100747.09
2022-09-11T02:44:15.188Z,100730.53
2022-09-11T02:47:26.810Z,100721.78
2022-09-11T02:50:16.130Z,100720.19
2022-09-11T02:53:01.202Z,100726.53
2022-09-11T02:55:43.719Z,100722.91
2022-09-11T02:58:19.573Z,100711.44
2022-09-11T03:00:48.172Z,100717.69
2022-09-11T03:03:16.025Z,100724.41
2022-09-11T03:05:43.590Z,100719.94
2022-09-11T03:08:12.046Z,100712.72
2022-09-11T03:10:40.437Z,100709.94
2022-09-11T03:13:11.043Z,100719.88
2022-09-11T03:15:38.336Z,100734.59
2022-09-11T03:18:05.829Z,100724.81
2022-09-11T03:20:34.203Z,100735.47
2022-09-11T03:23:01.997Z,100748.34
2022-09-11T03:25:29.929Z,100742.41
2022-09-11T03:28:00.313Z,100741.97
2022-09-11T03:30:30.011Z,100746.72
2022-09-11T03:32:58.491Z,100739.19
2022-09-11T03:35:27.226Z,100743.47
2022-09-11T03:37:57.776Z,100730.38
2022-09-11T03:40:25.304Z,100742.22
2022-09-11T03:42:53.087Z,100724.47
2022-09-11T03:45:21.445Z,100737.09
2022-09-11T03:47:48.862Z,100738.31
2022-09-11T03:50:17.777Z,100736.03
2022-09-11T03:52:45.126Z,100741.16
2022-09-11T03:55:12.535Z,100731.88
2022-09-11T03:57:39.898Z,100727.03
2022-09-11T04:00:10.674Z,100721.53
2022-09-11T04:02:55.686Z,100733.19
2022-09-11T04:05:36.589Z,100741.34
2022-09-11T04:08:05.279Z,100744.19
2022-09-11T04:10:34.399Z,100740.84
2022-09-11T04:13:02.833Z,100736.69
2022-09-11T04:15:31.077Z,100732.88
2022-09-11T04:18:03.359Z,100736.13
2022-09-11T04:20:33.755Z,100742.34
2022-09-11T04:23:01.219Z,100746.19
2022-09-11T04:25:31.480Z,100736.56
2022-09-11T04:28:02.826Z,100741.78
2022-09-11T04:30:30.333Z,100740.22
2022-09-11T04:32:58.995Z,100722.28
2022-09-11T04:35:26.442Z,100736.97
2022-09-11T04:37:57.064Z,100748.50
2022-09-11T04:40:24.378Z,100752.97
2022-09-11T04:42:51.846Z,100758.28
2022-09-11T04:45:20.291Z,100772.66
2022-09-11T04:47:47.835Z,100770.47
2022-09-11T04:50:15.742Z,100762.78
2022-09-11T04:52:45.361Z,100768.63
2022-09-11T04:55:12.986Z,100754.44
2022-09-11T04:57:40.280Z,100759.78
2022-09-11T05:00:08.880Z,100758.75
2022-09-11T05:02:36.827Z,100771.50
2022-09-11T05:05:05.679Z,100771.00
2022-09-11T05:07:33.379Z,100775.31
2022-09-11T05:10:04.630Z,100770.59
2022-09-11T05:12:32.007Z,100780.47
2022-09-11T05:14:59.652Z,100778.31
2022-09-11T05:17:27.268Z,100790.19
2022-09-11T05:19:56.017Z,100808.66
2022-09-11T05:22:23.996Z,100808.56
2022-09-11T05:24:56.022Z,100815.81
2022-09-11T05:27:23.282Z,100811.53
2022-09-11T05:29:53.380Z,100815.56
2022-09-11T05:32:20.687Z,100814.91
2022-09-11T05:34:48.235Z,100814.84
2022-09-11T05:37:17.022Z,100814.34
2022-09-11T05:39:46.138Z,100814.50
2022-09-11T05:42:15.291Z,100816.84
2022-09-11T05:44:48.105Z,100824.09
2022-09-11T05:47:16.298Z,100831.28
2022-09-11T05:49:45.885Z,100827.06
2022-09-11T05:52:14.841Z,100840.63
2022-09-11T05:54:46.317Z,100842.16
2022-09-11T05:57:15.152Z,100839.50
2022-09-11T05:59:43.517Z,100847.91
2022-09-11T06:02:12.207Z,100833.84
2022-09-11T06:04:48.274Z,100842.25
2022-09-11T06:07:15.602Z,100841.78
2022-09-11T06:09:46.169Z,100849.22
2022-09-11T06:12:13.535Z,100856.88
2022-09-11T06:14:44.423Z,100857.84
2022-09-11T06:17:12.408Z,100877.38
2022-09-11T06:19:40.026Z,100875.88
2022-09-11T06:22:07.504Z,100875.66
2022-09-11T06:24:39.307Z,100871.06
2022-09-11T06:27:06.931Z,100877.91
2022-09-11T06:29:38.059Z,100870.81
2022-09-11T06:32:06.895Z,100872.41
2022-09-11T06:34:34.548Z,100877.53
2022-09-11T06:37:05.906Z,100869.44
2022-09-11T06:39:34.264Z,100882.19
2022-09-11T06:42:02.955Z,100871.63
2022-09-11T06:44:35.109Z,100874.09
2022-09-11T06:47:05.337Z,100867.78
2022-09-11T06:49:34.914Z,100875.09
2022-09-11T06:52:35.338Z,100882.56
2022-09-11T06:55:14.620Z,100884.28
2022-09-11T06:57:48.367Z,100890.16
2022-09-11T07:00:20.295Z,100887.69
2022-09-11T07:02:47.675Z,100886.63
2022-09-11T07:05:15.817Z,100873.47
2022-09-11T07:07:48.347Z,100881.41
2022-09-11T07:10:17.136Z,100884.75
2022-09-11T07:12:49.326Z,100884.09
2022-09-11T07:15:17.087Z,100878.97
2022-09-11T07:17:44.458Z,100872.72
2022-09-11T07:20:13.854Z,100870.47
2022-09-11T07:22:41.352Z,100872.53
2022-09-11T07:25:09.153Z,100885.53
2022-09-11T07:27:40.057Z,100877.63
2022-09-11T07:30:10.483Z,100878.94
2022-09-11T07:32:39.949Z,100872.41
2022-09-11T07:35:07.780Z,100874.84
2022-09-11T07:37:37.774Z,100871.84
2022-09-11T07:40:06.041Z,100878.28
2022-09-11T07:42:34.040Z,100878.97
2022-09-11T07:45:04.324Z,100879.47
2022-09-11T07:47:34.574Z,100877.94
2022-09-11T07:50:02.927Z,100890.78
2022-09-11T07:52:31.852Z,100884.50
2022-09-11T07:55:02.137Z,100892.78
2022-09-11T07:57:32.191Z,100883.84
2022-09-11T08:00:03.896Z,100893.25
2022-09-11T08:02:48.544Z,100893.72
2022-09-11T08:05:20.948Z,100886.84
2022-09-11T08:07:48.553Z,100895.53
2022-09-11T08:10:27.349Z,100894.94
2022-09-11T08:12:59.637Z,100902.25
2022-09-11T08:15:30.757Z,100900.28
2022-09-11T08:17:58.256Z,100900.38
2022-09-11T08:20:25.598Z,100895.72
2022-09-11T08:22:53.018Z,100889.22
2022-09-11T08:25:20.386Z,100891.84
2022-09-11T08:27:47.648Z,100887.28
2022-09-11T08:30:18.819Z,100894.69
2022-09-11T08:32:46.626Z,100888.09
2022-09-11T08:35:14.022Z,100877.50
2022-09-11T08:37:43.286Z,100890.41
2022-09-11T08:40:13.070Z,100892.28
2022-09-11T08:42:43.479Z,100888.84
2022-09-11T08:45:18.269Z,100896.88
2022-09-11T08:47:57.551Z,100886.75
2022-09-11T08:50:34.516Z,100883.38
2022-09-11T08:53:03.521Z,100880.16
2022-09-11T08:55:41.368Z,100888.00
2022-09-11T08:58:55.397Z,100885.03
2022-09-11T09:01:37.323Z,100898.22
2022-09-11T09:04:19.929Z,100892.97
2022-09-11T09:07:20.149Z,100887.41
2022-09-11T09:10:09.031Z,100898.16
2022-09-11T09:13:22.138Z,100898.59
2022-09-11T09:16:05.808Z,100888.31
2022-09-11T09:18:55.420Z,100895.91
2022-09-11T09:21:40.526Z,100898.47
2022-09-11T09:24:19.915Z,100892.94
2022-09-11T09:26:54.243Z,100891.38
2022-09-11T09:29:24.394Z,100900.47
2022-09-11T09:31:57.428Z,100895.50
2022-09-11T09:34:31.227Z,100894.56
2022-09-11T09:37:21.986Z,100898.00
2022-09-11T09:39:51.296Z,100889.56
2022-09-11T09:42:58.936Z,100902.66
2022-09-11T09:45:38.875Z,100890.22
2022-09-11T09:48:10.686Z,100889.03
2022-09-11T09:50:40.646Z,100884.97
2022-09-11T09:53:31.313Z,100894.97
2022-09-11T09:56:00.459Z,100885.06
2022-09-11T09:58:48.898Z,100886.81
2022-09-11T10:01:44.875Z,100890.34
2022-09-11T10:04:15.313Z,100885.38
2022-09-11T10:06:47.672Z,100886.25
2022-09-11T10:09:33.911Z,100885.53
2022-09-11T10:12:08.847Z,100886.72
2022-09-11T10:14:52.280Z,100886.13
2022-09-11T10:17:39.501Z,100884.75
2022-09-11T10:20:16.117Z,100886.44
2022-09-11T10:22:43.907Z,100880.72
2022-09-11T10:25:20.739Z,100877.91
2022-09-11T10:28:08.960Z,100880.25
2022-09-11T10:30:39.531Z,100882.91
2022-09-11T10:33:33.659Z,100881.06
2022-09-11T10:36:05.443Z,100877.53
2022-09-11T10:38:45.347Z,100882.44
2022-09-11T10:41:12.955Z,100873.56
2022-09-11T10:43:47.600Z,100869.13
2022-09-11T10:46:22.791Z,100862.09
2022-09-11T10:48:56.564Z,100858.94
2022-09-11T10:51:25.908Z,100870.50
2022-09-11T10:54:07.165Z,100857.44
2022-09-11T10:56:38.363Z,100860.97
2022-09-11T10:59:11.868Z,100848.03
2022-09-11T11:01:40.036Z,100859.91
2022-09-11T11:04:15.340Z,100847.69
2022-09-11T11:06:49.194Z,100850.50
2022-09-11T11:09:47.717Z,100847.66
2022-09-11T11:12:44.405Z,100857.34
2022-09-11T11:15:43.714Z,100864.41
2022-09-11T11:18:38.795Z,100868.75
2022-09-11T11:21:54.725Z,100853.31
2022-09-11T11:24:32.319Z,100859.97
2022-09-11T11:27:08.801Z,100861.06
2022-09-11T11:30:03.670Z,100861.25
2022-09-11T11:32:46.887Z,100864.41
2022-09-11T11:35:32.034Z,100859.13
2022-09-11T11:38:13.090Z,100865.44
2022-09-11T11:40:47.981Z,100865.59
2022-09-11T11:43:21.265Z,100857.78
2022-09-11T11:45:57.066Z,100858.41
2022-09-11T11:48:44.283Z,100851.94
2022-09-11T11:51:20.145Z,100855.75
2022-09-11T11:54:07.629Z,100854.59
2022-09-11T11:56:51.847Z,100852.31
2022-09-11T11:59:51.697Z,100836.72
2022-09-11T12:02:27.918Z,100842.03
2022-09-11T12:05:05.432Z,100849.94
2022-09-11T12:07:37.301Z,100838.91
2022-09-11T12:10:08.129Z,100841.34
2022-09-11T12:12:45.383Z,100840.91
2022-09-11T12:15:24.310Z,100849.22
2022-09-11T12:18:24.915Z,100842.69
2022-09-11T12:20:52.999Z,100844.66
2022-09-11T12:23:34.028Z,100841.34
2022-09-11T12:26:10.326Z,100843.75
2022-09-11T12:28:38.045Z,100844.19
2022-09-11T12:31:16.489Z,100834.84
2022-09-11T12:33:47.271Z,100830.78
2022-09-11T12:36:33.851Z,100833.47
2022-09-11T12:39:24.053Z,100828.38
2022-09-11T12:41:51.717Z,100823.63
2022-09-11T12:44:52.350Z,100821.91
2022-09-11T12:47:39.788Z,100822.00
2022-09-11T12:50:18.077Z,100824.81
2022-09-11T12:52:45.429Z,100819.00
2022-09-11T12:55:23.291Z,100817.69
2022-09-11T12:57:52.072Z,100818.75
2022-09-11T13:00:34.068Z,100804.66
2022-09-11T13:03:03.328Z,100808.56
2022-09-11T13:05:38.876Z,100808.53
2022-09-11T13:08:20.324Z,100810.25
2022-09-11T13:10:48.104Z,100807.41
2022-09-11T13:13:37.443Z,100801.53
2022-09-11T13:16:44.567Z,100808.06
2022-09-11T13:19:21.150Z,100807.47
2022-09-11T13:21:56.576Z,100796.66
2022-09-11T13:24:33.137Z,100798.69
2022-09-11T13:27:05.774Z,100798.41
2022-09-11T13:29:38.534Z,100798.75
2022-09-11T13:32:12.389Z,100793.84
2022-09-11T13:34:45.047Z,100779.72
2022-09-11T13:37:16.264Z,100781.75
2022-09-11T13:39:45.085Z,100782.19
2022-09-11T13:42:20.929Z,100777.56
2022-09-11T13:44:55.870Z,100769.72
2022-09-11T13:47:29.078Z,100775.22
2022-09-11T13:50:09.860Z,100769.09
2022-09-11T13:52:37.304Z,100765.13
2022-09-11T13:55:19.162Z,100760.78
2022-09-11T13:57:59.177Z,100771.59
2022-09-11T14:00:36.938Z,100767.38
2022-09-11T14:03:06.867Z,100766.47
2022-09-11T14:05:35.102Z,100752.09
2022-09-11T14:08:09.841Z,100759.19
2022-09-11T14:10:42.978Z,100752.81
2022-09-11T14:13:45.679Z,100741.38
2022-09-11T14:16:13.441Z,100745.22
2022-09-11T14:19:08.401Z,100737.03
2022-09-11T14:21:38.250Z,100736.97
2022-09-11T14:24:33.455Z,100724.69
2022-09-11T14:27:04.270Z,100735.84
2022-09-11T14:29:33.698Z,100728.28
2022-09-11T14:32:40.091Z,100721.91
2022-09-11T14:35:10.346Z,100718.13
2022-09-11T14:37:45.740Z,100719.81
2022-09-11T14:40:22.446Z,100722.03
2022-09-11T14:42:52.590Z,100724.56
2022-09-11T14:45:23.068Z,100722.47
2022-09-11T14:47:53.660Z,100716.38
2022-09-11T14:50:21.310Z,100708.78
2022-09-11T14:52:48.679Z,100710.00
2022-09-11T14:55:17.964Z,100704.53
2022-09-11T14:57:48.736Z,100704.88
2022-09-11T15:00:20.335Z,100696.06
2022-09-11T15:02:47.938Z,100696.09
2022-09-11T15:05:19.085Z,100704.34
2022-09-11T15:07:46.467Z,100699.81
2022-09-11T15:10:15.189Z,100691.25
2022-09-11T15:12:45.174Z,100695.75
2022-09-11T15:15:16.164Z,100698.63
2022-09-11T15:17:43.627Z,100701.03
2022-09-11T15:20:10.999Z,100696.34
2022-09-11T15:22:38.874Z,100698.13
2022-09-11T15:25:07.098Z,100703.41
2022-09-11T15:27:34.374Z,100701.06
2022-09-11T15:30:01.930Z,100698.25
2022-09-11T15:32:29.602Z,100687.16
2022-09-11T15:34:57.266Z,100692.19
2022-09-11T15:37:27.475Z,100695.56
2022-09-11T15:39:54.929Z,100688.06
2022-09-11T15:42:22.331Z,100695.91
2022-09-11T15:44:50.683Z,100682.13
2022-09-11T15:47:18.073Z,100678.41
2022-09-11T15:49:50.253Z,100685.69
2022-09-11T15:52:18.072Z,100677.94
2022-09-11T15:54:45.711Z,100677.38
2022-09-11T15:57:13.228Z,100677.16
2022-09-11T15:59:40.997Z,100673.91
2022-09-11T16:02:09.462Z,100683.75
2022-09-11T16:04:36.828Z,100672.91
2022-09-11T16:07:04.843Z,100681.41
2022-09-11T16:09:32.990Z,100679.84
2022-09-11T16:12:01.946Z,100677.19
2022-09-11T16:14:32.713Z,100681.00
2022-09-11T16:17:03.070Z,100676.03
2022-09-11T16:19:31.575Z,100675.72
2022-09-11T16:22:01.724Z,100673.47
2022-09-11T16:24:32.800Z,100675.81
2022-09-11T16:27:01.677Z,100677.69
2022-09-11T16:29:51.485Z,100675.03
2022-09-11T16:32:28.532Z,100683.28
2022-09-11T16:34:57.676Z,100683.47
2022-09-11T16:37:28.494Z,100678.94
2022-09-11T16:39:56.315Z,100687.00
2022-09-11T16:42:23.780Z,100683.97
2022-09-11T16:44:51.199Z,100684.22
2022-09-11T16:47:20.182Z,100694.16
2022-09-11T16:50:06.412Z,100693.31
2022-09-11T16:52:35.346Z,100683.03
2022-09-11T16:55:03.490Z,100679.69
2022-09-11T16:57:31.086Z,100687.22
2022-09-11T16:59:58.666Z,100687.22
2022-09-11T17:02:26.557Z,100679.22
2022-09-11T17:04:53.906Z,100676.09
2022-09-11T17:07:21.216Z,100686.47
2022-09-11T17:09:48.689Z,100687.34
2022-09-11T17:12:17.883Z,100681.66
2022-09-11T17:14:45.400Z,100690.38
2022-09-11T17:17:12.827Z,100684.34
2022-09-11T17:19:40.194Z,100673.75
2022-09-11T17:22:08.661Z,100686.16
2022-09-11T17:24:36.450Z,100683.09
2022-09-11T17:27:03.786Z,100686.47
2022-09-11T17:29:31.186Z,100681.44
2022-09-11T17:32:26.251Z,100682.19
2022-09-11T17:34:48.516Z,100678.97
2022-09-11T17:37:16.197Z,100694.19
2022-09-11T17:39:44.214Z,100682.97
2022-09-11T17:42:13.442Z,100680.88
2022-09-11T17:44:41.609Z,100691.25
2022-09-11T17:47:09.235Z,100696.31
2022-09-11T17:49:36.948Z,100695.19
2022-09-11T17:52:04.414Z,100699.25
2022-09-11T17:54:32.141Z,100697.75
2022-09-11T17:56:59.533Z,100697.13
2022-09-11T17:59:27.137Z,100703.53
2022-09-11T18:01:54.598Z,100693.16
2022-09-11T18:04:22.533Z,100695.38
2022-09-11T18:06:51.202Z,100701.63
2022-09-11T18:09:19.980Z,100702.53
2022-09-11T18:11:53.972Z,100715.03
2022-09-11T18:14:22.967Z,100713.03
2022-09-11T18:16:50.671Z,100718.72
2022-09-11T18:19:20.418Z,100718.69
2022-09-11T18:21:50.561Z,100719.91
2022-09-11T18:24:20.772Z,100725.59
2022-09-11T18:26:57.255Z,100726.59
2022-09-11T18:29:29.998Z,100719.22
2022-09-11T18:31:59.926Z,100729.84
2022-09-11T18:34:28.835Z,100736.59
2022-09-11T18:36:56.420Z,100731.28
2022-09-11T18:39:24.400Z,100732.88
2022-09-11T18:41:54.727Z,100736.34
2022-09-11T18:44:24.655Z,100738.47
2022-09-11T18:46:53.121Z,100743.72
2022-09-11T18:49:21.430Z,100748.00
2022-09-11T18:51:49.323Z,100750.91
2022-09-11T18:54:21.387Z,100740.25
2022-09-11T18:56:50.704Z,100751.06
2022-09-11T18:59:20.185Z,100751.53
2022-09-11T19:01:47.909Z,100752.72
2022-09-11T19:04:16.442Z,100751.75
2022-09-11T19:06:45.292Z,100751.03
2022-09-11T19:09:13.515Z,100760.94
2022-09-11T19:11:41.988Z,100760.19
2022-09-11T19:14:11.873Z,100774.94
2022-09-11T19:16:40.208Z,100774.53
2022-09-11T19:19:08.414Z,100777.78
2022-09-11T19:21:38.986Z,100784.50
2022-09-11T19:24:07.697Z,100785.84
2022-09-11T19:26:40.326Z,100780.75
2022-09-11T19:29:13.279Z,100781.53
2022-09-11T19:31:41.076Z,100792.28
2022-09-11T19:34:12.021Z,100789.50
2022-09-11T19:36:40.320Z,100788.34
2022-09-11T19:39:08.368Z,100792.28
2022-09-11T19:41:37.713Z,100794.63
2022-09-11T19:44:07.313Z,100793.06
2022-09-11T19:46:37.388Z,100806.28
2022-09-11T19:49:08.938Z,100805.94
2022-09-11T19:51:41.968Z,100813.44
2022-09-11T19:54:12.084Z,100812.69
2022-09-11T19:56:39.524Z,100816.66
2022-09-11T19:59:08.380Z,100817.50
2022-09-11T20:01:36.114Z,100813.16
2022-09-11T20:04:04.701Z,100831.00
2022-09-11T20:06:34.308Z,100824.63
2022-09-11T20:09:29.370Z,100821.47
2022-09-11T20:11:50.857Z,100824.69
2022-09-11T20:14:18.341Z,100830.66
2022-09-11T20:16:45.737Z,100832.63
2022-09-11T20:19:15.041Z,100831.06
2022-09-11T20:21:43.167Z,100838.94
2022-09-11T20:24:10.712Z,100847.28
2022-09-11T20:26:38.189Z,100850.81
2022-09-11T20:29:08.730Z,100851.56
2022-09-11T20:31:46.366Z,100852.81
2022-09-11T20:34:18.652Z,100849.66
2022-09-11T20:36:47.192Z,100854.00
2022-09-11T20:39:18.000Z,100849.22
2022-09-11T20:41:45.511Z,100848.44
2022-09-11T20:44:12.889Z,100842.50
2022-09-11T20:46:40.956Z,100847.66
2022-09-11T20:49:08.443Z,100853.63
2022-09-11T20:51:36.181Z,100863.50
2022-09-11T20:54:03.743Z,100859.91
2022-09-11T20:56:35.222Z,100856.75
2022-09-11T20:59:02.500Z,100862.31
2022-09-11T21:01:34.191Z,100869.81
2022-09-11T21:04:04.439Z,100873.75
2022-09-11T21:06:34.153Z,100875.34
2022-09-11T21:09:07.724Z,100872.97
2022-09-11T21:11:36.121Z,100873.75
2022-09-11T21:14:06.662Z,100876.94
2022-09-11T21:16:34.761Z,100878.91
2022-09-11T21:19:04.079Z,100884.44
2022-09-11T21:21:32.929Z,100887.59
2022-09-11T21:24:02.799Z,100893.09
2022-09-11T21:26:31.137Z,100895.53
2022-09-11T21:29:00.421Z,100892.78
2022-09-11T21:31:28.590Z,100894.72
2022-09-11T21:33:56.555Z,100899.06
2022-09-11T21:36:24.329Z,100897.47
2022-09-11T21:38:51.748Z,100897.47
2022-09-11T21:41:19.361Z,100895.44
2022-09-11T21:43:48.710Z,100905.22
2022-09-11T21:46:16.105Z,100913.47
2022-09-11T21:48:43.496Z,100919.38
2022-09-11T21:51:13.124Z,100915.00
2022-09-11T21:53:42.836Z,100920.00
2022-09-11T21:56:29.559Z,100919.72
2022-09-11T21:58:57.543Z,100919.41
2022-09-11T22:01:26.635Z,100917.41
2022-09-11T22:03:54.715Z,100916.53
2022-09-11T22:06:24.528Z,100918.59
2022-09-11T22:08:53.410Z,100923.75
2022-09-11T22:11:20.932Z,100930.47
2022-09-11T22:13:49.531Z,100931.28
2022-09-11T22:16:18.952Z,100927.72
2022-09-11T22:18:52.215Z,100934.44
2022-09-11T22:21:19.602Z,100930.09
2022-09-11T22:23:47.280Z,100933.97
2022-09-11T22:26:20.025Z,100932.03
2022-09-11T22:28:47.649Z,100927.66
2022-09-11T22:31:18.294Z,100931.22
2022-09-11T22:33:45.748Z,100935.59
2022-09-11T22:36:19.818Z,100931.22
2022-09-11T22:38:48.634Z,100944.69
2022-09-11T22:41:17.319Z,100931.94
2022-09-11T22:43:45.186Z,100937.81
2022-09-11T22:46:12.689Z,100933.91
2022-09-11T22:48:40.270Z,100940.25
2022-09-11T22:51:08.403Z,100935.44
2022-09-11T22:53:35.856Z,100940.09
2022-09-11T22:56:03.269Z,100945.25
2022-09-11T22:58:30.735Z,100942.97
2022-09-11T23:00:58.591Z,100942.13
2022-09-11T23:03:26.823Z,100936.22
2022-09-11T23:06:17.314Z,100944.13
2022-09-11T23:08:48.142Z,100946.44
2022-09-11T23:11:18.776Z,100948.31
2022-09-11T23:13:48.588Z,100941.56
2022-09-11T23:16:19.274Z,100943.09
2022-09-11T23:18:47.257Z,100941.81
2022-09-11T23:21:15.025Z,100948.50
2022-09-11T23:23:43.468Z,100950.47
2022-09-11T23:26:13.410Z,100950.03
2022-09-11T23:28:41.193Z,100943.72
2022-09-11T23:31:19.498Z,100942.09
2022-09-11T23:33:47.920Z,100932.63
2022-09-11T23:36:16.130Z,100942.06
2022-09-11T23:38:45.184Z,100936.97
2022-09-11T23:41:13.022Z,100938.50
2022-09-11T23:43:41.574Z,100947.19
2022-09-11T23:46:09.256Z,100944.97
2022-09-11T23:48:37.008Z,100941.41
2022-09-11T23:51:05.568Z,100941.72
2022-09-11T23:53:32.903Z,100940.88
2022-09-11T23:56:00.262Z,100940.88
2022-09-11T23:58:27.669Z,100938.22
